• Join FlightAware (Why Join?)
  • Login
  • US Flag 
02:47AM EDT


 

Airport Tracker/Info


-or-


 

Live Flight TrackerFlight Track Log ✈ N777NC ✈ 05-Jul-2013 ✈ KHOU - KATL

Flight Track Log - Related Links

Times and Time Zones

All times are in EDT time to prevent confusion due to time zone crossing. See the N777NC flight status page for this flight to view local times or setup timezone preferences in your user account.

Time Position Orientation Groundspeed Altitude Reporting Facility
EDT Latitude Longitude Course Direction KTS MPH feet Rate Location/Type
07:51PM 29.6336 -95.2917 139° Southeast 167 192 800  Level Houston Center
07:52PM 29.5928 -95.3039 195° South 226 260 2,000 1,320 Climbing Houston Center
07:52PM 29.5639 -95.2850 150° Southeast 221 254 2,800 1,440 Climbing Houston Center
07:53PM 29.5050 -95.2442 149° Southeast 257 296 4,400 2,220 Climbing Houston Center
07:54PM 29.4428 -95.1958 146° Southeast 274 315 7,400 2,760 Climbing Houston Center
07:55PM 29.9086 -94.6573 90° East  Level Estimated
07:55PM 29.4239 -95.0978 102° East 282 325 10,100  Level Houston Center
07:56PM 29.8177 -94.5668 139° Southeast  Level FlightAware Approximate
07:56PM 29.4572 -95.0014 68° East 332 382 11,600  Level Houston Center
07:57PM 29.4969 -94.9019 65° Northeast 346 398 13,900 1,800 Climbing Houston Center
07:58PM 29.5372 -94.7944 67° East 365 420 15,400 1,800 Climbing Houston Center
07:59PM 29.5786 -94.6786 68° East 392 451 17,700 1,860 Climbing Houston Center
08:00PM 29.6217 -94.5658 66° East 389 448 19,300 1,680 Climbing Houston Center
08:01PM 29.6722 -94.4194 68° East 410 472 21,200 1,740 Climbing Houston Center
08:02PM 29.7097 -94.2892 72° East 434 499 22,900 1,500 Climbing Houston Center
08:03PM 29.7039 -94.1556 93° East 432 497 24,300 1,380 Climbing Houston Center
08:04PM 29.6853 -94.0150 99° East 445 512 25,800 1,200 Climbing Houston Center
08:06PM 29.6856 -93.8703 90° East 452 520 26,800 1,140 Climbing Houston Center
08:07PM 29.7222 -93.7253 74° East 470 541 28,200 1,020 Climbing Houston Center
08:08PM 29.7653 -93.5486 74° East 479 551 29,000 360 Climbing Houston Center
08:09PM 29.8067 -93.3961 73° East 501 577 29,000  Level Houston Center
08:10PM 29.8536 -93.2464 70° East 502 578 29,000 300 Level Houston Center
08:11PM 29.8964 -93.0942 72° East 505 581 29,700 1,020 Climbing Houston Center
08:12PM 29.9461 -92.9439 69° East 504 580 31,200 1,020 Climbing Houston Center
08:13PM 29.9986 -92.7956 68° East 502 578 31,800 1,020 Climbing Houston Center
08:14PM 30.0636 -92.6111 68° East 516 594 33,300 1,260 Climbing Houston Center
08:15PM 30.1267 -92.4672 63° Northeast 509 586 34,400 780 Climbing Houston Center
08:16PM 30.1836 -92.3197 66° East 506 582 35,000 240 Climbing Houston Center
08:17PM 30.2386 -92.1758 66° East 510 587 35,000  Level Houston Center
08:18PM 30.2842 -92.0258 71° East 498 573 35,000  Level Houston Center
08:19PM 30.3447 -91.8461 69° East 499 574 35,000  Level Houston Center
08:20PM 30.3972 -91.6992 67° East 499 574 35,000  Level Houston Center
08:21PM 30.4528 -91.5431 68° East 499 574 35,000 -60 Level Houston Center
08:22PM 30.5036 -91.3933 68° East 500 575 34,900  Descending Houston Center
08:23PM 30.5583 -91.2444 67° East 501 577 35,000  Climbing Houston Center
08:24PM 30.6089 -91.0931 69° East 503 579 34,900  Descending Houston Center
08:25PM 30.6569 -90.9406 70° East 504 580 35,000  Climbing Houston Center
08:26PM 30.7017 -90.7881 71° East 501 577 34,900  Descending Houston Center
08:27PM 30.7264 -90.6314 80° East 496 571 35,000  Climbing Houston Center
08:28PM 30.7561 -90.4758 77° East 493 567 34,900  Descending Houston Center
08:29PM 30.7881 -90.3194 77° East 495 570 35,000  Climbing Houston Center
08:30PM 30.8272 -90.1353 76° East 486 559 34,900  Descending Houston Center
08:31PM 30.8633 -89.9819 75° East 488 562 35,000  Climbing Houston Center
08:32PM 30.9014 -89.8319 73° East 483 556 34,900  Descending Houston Center
08:33PM 30.9225 -89.6811 81° East 470 541 35,000  Climbing Houston Center
08:34PM 30.9408 -89.5303 82° East 468 539 35,000  Level Houston Center
08:35PM 30.9611 -89.3817 81° East 465 535 35,000  Level Houston Center
08:36PM 30.9753 -89.2328 84° East 464 534 35,000  Level Houston Center
08:37PM 30.9586 -89.0858 97° East 456 525 35,000  Level Houston Center
08:38PM 30.9381 -88.9219 98° East 455 524 35,000  Level Houston Center
08:39PM 30.9206 -88.7750 98° East 460 529 35,000  Level Houston Center
08:40PM 30.9039 -88.6294 98° East 457 526 35,000  Level Houston Center
08:41PM 30.8956 -88.4697 93° East 458 527 35,000  Level Houston Center
08:42PM 30.9797 -88.3578 49° Northeast 471 542 35,000  Level Houston Center
08:43PM 31.0900 -88.2692 35° Northeast 478 550 35,000  Level Houston Center
08:44PM 31.1972 -88.1761 37° Northeast 487 560 35,000  Level Houston Center
08:45PM 31.2858 -88.0653 47° Northeast 476 548 35,000  Level Houston Center
08:47PM 31.3667 -87.9472 51° Northeast 467 537 35,000  Level Houston Center
08:48PM 31.4525 -87.8311 49° Northeast 470 541 35,000  Level Houston Center
08:49PM 31.5261 -87.7036 56° Northeast 471 542 35,000  Level Houston Center
08:50PM 31.6192 -87.5531 54° Northeast 475 547 35,000 -300 Level Houston Center
08:51PM 31.6892 -87.4239 57° Northeast 471 542 34,500 -840 Descending Houston Center
08:52PM 31.7589 -87.2958 57° Northeast 468 539 33,400 -1,020 Descending Houston Center
08:53PM 31.8550 -87.2028 39° Northeast 460 529 32,500 -1,320 Descending Houston Center
08:54PM 31.9675 -87.1453 23° Northeast 445 512 30,800 -1,560 Descending Houston Center
08:55PM 32.0811 -87.0908 22° Northeast 443 510 29,400 -1,380 Descending Houston Center
08:56PM 32.1875 -87.0311 25° Northeast 436 502 28,000 -1,440 Descending Houston Center
08:57PM 32.3217 -86.9539 26° Northeast 416 479 26,100 -1,440 Descending Atlanta Center
08:58PM 32.4233 -86.8956 26° Northeast 409 471 24,800 -1,020 Descending Atlanta Center
08:59PM 32.5286 -86.8450 22° Northeast 404 465 24,100 -420 Descending Atlanta Center
09:00PM 32.6367 -86.7817 26° Northeast 399 459 24,000  Descending Atlanta Center
09:01PM 32.7358 -86.7281 24° Northeast 394 453 24,100  Climbing Atlanta Center
09:02PM 32.7572 -86.6150 77° East 317 365 24,000 -60 Descending Atlanta Center
09:03PM 32.7178 -86.5028 113° Southeast 308 354 24,000  Level Atlanta Center
09:04PM 32.6781 -86.3906 113° Southeast 320 368 24,000  Level Atlanta Center
09:05PM 32.6386 -86.2761 112° Southeast 347 399 24,000  Level Atlanta Center
09:06PM 32.6028 -86.1692 112° Southeast 353 406 24,000  Level Atlanta Center
09:07PM 32.5669 -86.0600 111° Southeast 353 406 24,000 -180 Level Atlanta Center
09:08PM 32.5292 -85.9506 112° Southeast 353 406 23,700 -360 Descending Atlanta Center
09:09PM 32.4889 -85.8439 114° Southeast 358 412 23,300 -720 Descending Atlanta Center
09:10PM 32.4572 -85.7300 108° East 358 412 22,300 -1,080 Descending Atlanta Center
09:11PM 32.4189 -85.6211 113° Southeast 358 412 21,200 -660 Descending Atlanta Center
09:12PM 32.3828 -85.5122 111° Southeast 358 412 21,000 -120 Descending Atlanta Center
09:13PM 32.3464 -85.4058 112° Southeast 353 406 21,000  Level Atlanta Center
09:14PM 32.3142 -85.2997 110° East 353 406 21,000  Level Atlanta Center
09:15PM 32.2775 -85.1958 113° Southeast 353 406 21,000  Level Atlanta Center
09:16PM 32.2847 -85.0928 85° East 325 374 21,100  Climbing Atlanta Center
09:17PM 32.3828 -85.0964 358° North 224 258 21,000 -60 Descending Atlanta Center
09:18PM 32.4828 -85.1247 347° North 293 337 21,000 -60 Level Atlanta Center
09:19PM 32.5911 -85.1383 354° North 334 384 20,900 -1,260 Descending Atlanta Center
09:20PM 32.6956 -85.1519 354° North 361 415 18,500 -2,100 Descending Atlanta Center
09:21PM 32.7975 -85.1681 352° North 366 421 16,700 -1,980 Descending Atlanta Center
09:22PM 32.8956 -85.1792 355° North 366 421 14,600 -1,860 Descending Atlanta Center
09:23PM 32.9914 -85.1953 352° North 356 410 13,000 -1,080 Descending Atlanta Center
09:24PM 33.0750 -85.1892 North 343 395 12,500 -540 Descending Atlanta Center
09:25PM 33.1342 -85.1203 44° Northeast 292 336 12,000 -300 Descending Atlanta Center
09:26PM 33.1828 -85.0317 57° Northeast 298 343 12,000 -660 Level Atlanta Center
09:27PM 33.2397 -84.9578 47° Northeast 303 349 10,700 -1,620 Descending Atlanta Center
09:28PM 33.2967 -84.8864 46° Northeast 298 343 8,800 -2,400 Descending Atlanta Center
09:29PM 33.3533 -84.8197 44° Northeast 281 323 6,000 -2,220 Descending Atlanta Center
09:30PM 33.4392 -84.8131 North 258 297 4,400 -1,200 Descending Atlanta Center
09:31PM 33.5228 -84.8014 North 285 328 3,700 -780 Descending Atlanta Center
09:32PM 33.5917 -84.7669 23° Northeast 281 323 2,900 -360 Descending Atlanta Center
09:33PM 33.6150 -84.7022 67° East 212 244 3,000 60 Climbing Atlanta Center